createdAt,value
2022-09-06T00:01:06.899Z,23.34
2022-09-06T00:03:33.326Z,23.34
2022-09-06T00:05:59.733Z,23.34
2022-09-06T00:08:26.271Z,23.34
2022-09-06T00:11:01.149Z,23.33
2022-09-06T00:13:27.842Z,23.34
2022-09-06T00:15:54.320Z,23.34
2022-09-06T00:18:20.932Z,23.32
2022-09-06T00:20:47.335Z,23.31
2022-09-06T00:23:13.687Z,23.30
2022-09-06T00:25:41.396Z,23.31
2022-09-06T00:28:07.745Z,23.31
2022-09-06T00:30:34.319Z,23.30
2022-09-06T00:33:00.672Z,23.31
2022-09-06T00:35:27.036Z,23.30
2022-09-06T00:38:02.751Z,23.30
2022-09-06T00:40:29.467Z,23.29
2022-09-06T00:42:58.523Z,23.29
2022-09-06T00:45:25.267Z,23.28
2022-09-06T00:47:51.615Z,23.27
2022-09-06T00:50:17.967Z,23.27
2022-09-06T00:52:44.619Z,23.27
2022-09-06T00:55:11.005Z,23.28
2022-09-06T00:57:37.369Z,23.27
2022-09-06T01:00:05.001Z,23.27
2022-09-06T01:02:31.444Z,23.27
2022-09-06T01:04:57.901Z,23.26
2022-09-06T01:07:24.185Z,23.26
2022-09-06T01:10:06.706Z,23.25
2022-09-06T01:12:47.167Z,23.24
2022-09-06T01:15:32.435Z,23.23
2022-09-06T01:18:19.006Z,23.24
2022-09-06T01:20:51.379Z,23.24
2022-09-06T01:23:36.563Z,23.24
2022-09-06T01:26:14.259Z,23.24
2022-09-06T01:28:41.640Z,23.22
2022-09-06T01:31:11.626Z,23.24
2022-09-06T01:33:37.949Z,23.23
2022-09-06T01:36:05.206Z,23.23
2022-09-06T01:38:31.560Z,23.22
2022-09-06T01:40:57.928Z,23.23
2022-09-06T01:43:25.865Z,23.21
2022-09-06T01:46:07.507Z,23.21
2022-09-06T01:48:45.071Z,23.21
2022-09-06T01:51:24.468Z,23.20
2022-09-06T01:54:00.441Z,23.20
2022-09-06T01:56:32.890Z,23.20
2022-09-06T01:59:02.065Z,23.19
2022-09-06T02:01:37.444Z,23.19
2022-09-06T02:04:08.846Z,23.19
2022-09-06T02:06:38.063Z,23.19
2022-09-06T02:09:05.609Z,23.19
2022-09-06T02:11:33.605Z,23.19
2022-09-06T02:14:04.509Z,23.18
2022-09-06T02:16:30.937Z,23.18
2022-09-06T02:18:59.153Z,23.16
2022-09-06T02:21:26.754Z,23.19
2022-09-06T02:23:53.134Z,23.17
2022-09-06T02:26:23.296Z,23.17
2022-09-06T02:28:49.680Z,23.16
2022-09-06T02:31:16.962Z,23.16
2022-09-06T02:33:43.863Z,23.16
2022-09-06T02:36:10.229Z,23.16
2022-09-06T02:38:37.125Z,23.16
2022-09-06T02:41:03.494Z,23.15
2022-09-06T02:43:29.867Z,23.15
2022-09-06T02:45:56.291Z,23.15
2022-09-06T02:48:22.721Z,23.14
2022-09-06T02:50:49.174Z,23.14
2022-09-06T02:53:15.601Z,23.14
2022-09-06T02:55:41.990Z,23.12
2022-09-06T02:58:09.222Z,23.12
2022-09-06T03:00:35.606Z,23.13
2022-09-06T03:03:01.961Z,23.12
2022-09-06T03:05:28.314Z,23.12
2022-09-06T03:07:54.784Z,23.11
2022-09-06T03:10:21.427Z,23.11
2022-09-06T03:12:47.794Z,23.10
2022-09-06T03:15:14.365Z,23.11
2022-09-06T03:17:40.905Z,23.10
2022-09-06T03:20:07.505Z,23.11
2022-09-06T03:22:33.915Z,23.09
2022-09-06T03:25:00.283Z,23.09
2022-09-06T03:27:26.648Z,23.09
2022-09-06T03:29:53.053Z,23.08
2022-09-06T03:32:19.454Z,23.09
2022-09-06T03:34:45.828Z,23.09
2022-09-06T03:37:12.214Z,23.08
2022-09-06T03:39:38.621Z,23.07
2022-09-06T03:42:05.028Z,23.08
2022-09-06T03:44:31.386Z,23.08
2022-09-06T03:46:58.678Z,23.08
2022-09-06T03:49:25.048Z,23.07
2022-09-06T03:51:51.426Z,23.05
2022-09-06T03:54:17.794Z,23.06
2022-09-06T03:56:44.147Z,23.04
2022-09-06T03:59:10.499Z,23.05
2022-09-06T04:01:36.890Z,23.05
2022-09-06T04:04:03.270Z,23.05
2022-09-06T04:06:29.626Z,23.04
2022-09-06T04:08:55.973Z,23.05
2022-09-06T04:11:22.570Z,23.04
2022-09-06T04:13:49.159Z,23.04
2022-09-06T04:16:17.527Z,23.03
2022-09-06T04:18:43.947Z,23.07
2022-09-06T04:21:10.301Z,23.05
2022-09-06T04:23:39.925Z,23.05
2022-09-06T04:26:06.538Z,23.05
2022-09-06T04:28:32.877Z,23.05
2022-09-06T04:31:04.053Z,23.04
2022-09-06T04:33:31.329Z,23.04
2022-09-06T04:35:58.149Z,23.03
2022-09-06T04:38:24.778Z,23.03
2022-09-06T04:40:51.137Z,23.03
2022-09-06T04:43:17.490Z,23.03
2022-09-06T04:45:43.905Z,23.02
2022-09-06T04:48:10.287Z,23.01
2022-09-06T04:50:36.680Z,23.01
2022-09-06T04:53:06.031Z,23.00
2022-09-06T04:55:33.852Z,23.05
2022-09-06T04:58:03.497Z,23.08
2022-09-06T05:00:30.332Z,23.07
2022-09-06T05:02:56.721Z,23.05
2022-09-06T05:05:23.124Z,23.05
2022-09-06T05:07:55.465Z,23.06
2022-09-06T05:10:22.596Z,23.07
2022-09-06T05:12:49.673Z,23.09
2022-09-06T05:15:16.773Z,23.07
2022-09-06T05:17:43.161Z,23.06
2022-09-06T05:20:10.220Z,23.07
2022-09-06T05:22:36.656Z,23.06
2022-09-06T05:25:03.025Z,23.05
2022-09-06T05:27:29.391Z,23.06
2022-09-06T05:29:55.751Z,23.07
2022-09-06T05:32:22.114Z,23.02
2022-09-06T05:34:48.475Z,23.03
2022-09-06T05:37:14.828Z,23.05
2022-09-06T05:39:41.225Z,22.98
2022-09-06T05:42:07.663Z,23.00
2022-09-06T05:44:34.427Z,23.04
2022-09-06T05:47:01.144Z,23.05
2022-09-06T05:49:30.557Z,23.29
2022-09-06T05:51:56.901Z,23.23
2022-09-06T05:54:23.258Z,23.51
2022-09-06T05:56:49.623Z,23.81
2022-09-06T05:59:15.982Z,23.98
2022-09-06T06:01:49.221Z,23.87
2022-09-06T06:04:15.702Z,24.05
2022-09-06T06:06:42.065Z,24.02
2022-09-06T06:09:08.444Z,23.96
2022-09-06T06:11:34.933Z,24.02
2022-09-06T06:14:02.092Z,24.05
2022-09-06T06:16:29.032Z,24.03
2022-09-06T06:18:55.556Z,24.12
2022-09-06T06:21:31.353Z,24.22
2022-09-06T06:23:58.447Z,24.24
2022-09-06T06:26:25.071Z,24.20
2022-09-06T06:28:51.695Z,23.89
2022-09-06T06:31:19.325Z,23.88
2022-09-06T06:33:46.370Z,24.04
2022-09-06T06:36:13.203Z,23.79
2022-09-06T06:38:40.083Z,24.08
2022-09-06T06:41:07.245Z,24.09
2022-09-06T06:43:37.572Z,24.07
2022-09-06T06:46:08.387Z,23.92
2022-09-06T06:48:34.997Z,23.54
2022-09-06T06:51:01.382Z,23.51
2022-09-06T06:53:27.742Z,23.76
2022-09-06T06:55:54.451Z,23.91
2022-09-06T06:58:20.853Z,23.91
2022-09-06T07:00:47.318Z,23.95
2022-09-06T07:03:13.830Z,23.93
2022-09-06T07:08:26.818Z,23.14
2022-09-06T07:10:53.232Z,22.99
2022-09-06T07:13:19.660Z,23.04
2022-09-06T07:15:46.021Z,22.71
2022-09-06T07:18:12.378Z,22.78
2022-09-06T07:26:15.439Z,22.63
2022-09-06T07:28:41.801Z,22.46
2022-09-06T07:33:55.760Z,22.58
2022-09-06T07:36:22.239Z,22.86
2022-09-06T07:38:49.713Z,23.01
2022-09-06T07:41:17.281Z,23.06
2022-09-06T07:43:43.746Z,23.07
2022-09-06T07:46:10.856Z,23.10
2022-09-06T07:48:38.012Z,23.12
2022-09-06T07:51:05.118Z,23.16
2022-09-06T07:53:31.622Z,23.15
2022-09-06T07:55:58.895Z,23.13
2022-09-06T07:58:25.260Z,23.05
2022-09-06T08:00:51.658Z,23.06
2022-09-06T08:03:18.074Z,23.09
2022-09-06T08:11:17.474Z,23.14
2022-09-06T08:13:43.842Z,23.15
2022-09-06T08:16:16.943Z,23.13
2022-09-06T08:18:43.862Z,23.12
2022-09-06T08:21:13.754Z,23.14
2022-09-06T08:23:42.683Z,23.15
2022-09-06T08:26:09.125Z,23.15
2022-09-06T08:28:35.489Z,23.12
2022-09-06T08:31:05.747Z,23.14
2022-09-06T08:33:32.161Z,23.22
2022-09-06T08:35:58.504Z,23.35
2022-09-06T08:38:24.865Z,23.47
2022-09-06T08:40:51.634Z,23.46
2022-09-06T08:43:19.984Z,23.35
2022-09-06T08:45:47.374Z,23.39
2022-09-06T08:48:13.791Z,23.42
2022-09-06T08:50:40.407Z,23.37
2022-09-06T08:53:17.139Z,23.41
2022-09-06T08:55:54.079Z,23.52
2022-09-06T08:58:26.242Z,23.73
2022-09-06T09:00:58.354Z,23.72
2022-09-06T09:03:25.250Z,23.72
2022-09-06T09:05:52.200Z,23.46
2022-09-06T09:08:23.357Z,23.34
2022-09-06T09:10:59.085Z,23.34
2022-09-06T09:13:34.097Z,23.33
2022-09-06T09:16:00.516Z,23.33
2022-09-06T09:18:30.886Z,23.33
2022-09-06T09:20:57.553Z,23.46
2022-09-06T09:23:23.928Z,23.72
2022-09-06T09:25:52.663Z,23.82
2022-09-06T09:28:20.052Z,23.83
2022-09-06T09:30:50.411Z,23.83
2022-09-06T09:33:20.789Z,23.90
2022-09-06T09:35:47.159Z,23.94
2022-09-06T09:38:14.088Z,23.94
2022-09-06T09:40:50.788Z,23.91
2022-09-06T09:43:27.745Z,22.94
2022-09-06T09:45:57.594Z,22.55
2022-09-06T09:48:27.160Z,22.55
2022-09-06T09:50:54.095Z,21.81
2022-09-06T09:53:22.091Z,21.74
2022-09-06T09:55:48.890Z,22.52
2022-09-06T09:58:41.294Z,22.75
2022-09-06T10:01:21.621Z,22.78
2022-09-06T10:09:21.717Z,22.92
2022-09-06T10:11:49.371Z,23.02
2022-09-06T10:14:25.774Z,22.83
2022-09-06T10:16:52.265Z,23.04
2022-09-06T10:19:42.158Z,23.24
2022-09-06T10:22:13.879Z,23.26
2022-09-06T10:24:50.577Z,22.97
2022-09-06T10:27:17.929Z,23.35
2022-09-06T10:29:53.013Z,23.55
2022-09-06T10:32:30.947Z,23.56
2022-09-06T10:35:00.600Z,23.55
2022-09-06T10:37:45.250Z,23.69
2022-09-06T10:40:12.185Z,24.17
2022-09-06T10:42:54.276Z,23.82
2022-09-06T10:45:26.440Z,24.13
2022-09-06T10:47:52.807Z,24.39
2022-09-06T10:50:20.147Z,24.43
2022-09-06T10:52:46.606Z,24.43
2022-09-06T10:55:14.937Z,24.41
2022-09-06T11:00:28.731Z,24.45
2022-09-06T11:05:52.832Z,24.53
2022-09-06T11:11:11.350Z,24.52
2022-09-06T11:13:37.891Z,24.53
2022-09-06T11:16:30.664Z,24.51
2022-09-06T11:19:01.882Z,24.40
2022-09-06T11:21:47.158Z,24.21
2022-09-06T11:24:16.949Z,24.04
2022-09-06T11:26:44.054Z,23.91
2022-09-06T11:29:18.039Z,23.92
2022-09-06T11:34:35.775Z,23.96
2022-09-06T11:37:02.611Z,24.02
2022-09-06T11:42:36.379Z,23.86
2022-09-06T11:45:02.666Z,23.94
2022-09-06T11:47:35.850Z,23.85
2022-09-06T11:50:20.545Z,23.93
2022-09-06T11:52:56.715Z,23.89
2022-09-06T11:55:24.954Z,23.82
2022-09-06T11:57:54.346Z,23.95
2022-09-06T12:00:23.697Z,23.94
2022-09-06T12:02:50.541Z,23.87
2022-09-06T12:05:18.112Z,23.87
2022-09-06T12:08:02.980Z,23.96
2022-09-06T12:10:29.272Z,23.97
2022-09-06T12:12:55.621Z,24.02
2022-09-06T12:15:28.885Z,23.88
2022-09-06T12:17:55.309Z,23.78
2022-09-06T12:20:40.565Z,23.85
2022-09-06T12:23:06.918Z,23.82
2022-09-06T12:25:36.292Z,24.10
2022-09-06T12:28:02.922Z,23.88
2022-09-06T12:30:30.667Z,23.91
2022-09-06T12:32:57.031Z,23.94
2022-09-06T12:38:14.254Z,23.96
2022-09-06T12:40:41.250Z,24.17
2022-09-06T12:43:08.727Z,24.23
2022-09-06T12:45:35.109Z,24.08
2022-09-06T12:48:08.604Z,24.18
2022-09-06T12:50:35.141Z,24.22
2022-09-06T12:53:01.899Z,24.08
2022-09-06T12:55:32.600Z,24.12
2022-09-06T12:58:05.836Z,24.15
2022-09-06T13:00:34.344Z,24.20
2022-09-06T13:03:00.676Z,24.02
2022-09-06T13:05:27.087Z,23.88
2022-09-06T13:07:54.412Z,23.82
2022-09-06T13:10:22.185Z,23.82
2022-09-06T13:12:50.369Z,23.82
2022-09-06T13:15:17.559Z,23.78
2022-09-06T13:17:43.963Z,23.77
2022-09-06T13:20:11.396Z,23.76
2022-09-06T13:22:38.926Z,23.78
2022-09-06T13:25:05.546Z,23.78
2022-09-06T13:27:38.074Z,23.86
2022-09-06T13:30:09.074Z,23.80
2022-09-06T13:32:35.588Z,23.83
2022-09-06T13:35:01.977Z,23.85
2022-09-06T13:37:29.754Z,23.85
2022-09-06T13:39:57.500Z,23.86
2022-09-06T13:42:28.436Z,23.89
2022-09-06T13:44:56.801Z,23.83
2022-09-06T13:47:29.513Z,23.89
2022-09-06T13:49:55.897Z,23.93
2022-09-06T13:52:22.726Z,23.88
2022-09-06T13:54:49.127Z,23.90
2022-09-06T13:57:15.468Z,24.35
2022-09-06T13:59:42.989Z,24.17
2022-09-06T14:02:09.900Z,24.23
2022-09-06T14:04:37.986Z,24.34
2022-09-06T14:07:04.605Z,24.22
2022-09-06T14:09:31.001Z,24.34
2022-09-06T14:11:57.429Z,24.33
2022-09-06T14:14:24.753Z,24.35
2022-09-06T14:16:51.112Z,24.44
2022-09-06T14:19:17.492Z,24.38
2022-09-06T14:21:43.845Z,24.38
2022-09-06T14:24:10.289Z,24.46
2022-09-06T14:26:36.709Z,24.56
2022-09-06T14:29:03.176Z,24.61
2022-09-06T14:31:29.637Z,24.58
2022-09-06T14:33:56.085Z,24.65
2022-09-06T14:36:23.179Z,24.77
2022-09-06T14:38:49.545Z,24.74
2022-09-06T14:41:16.044Z,24.83
2022-09-06T14:43:42.872Z,24.84
2022-09-06T14:46:09.996Z,24.80
2022-09-06T14:48:39.210Z,24.38
2022-09-06T14:51:09.527Z,24.39
2022-09-06T14:53:42.069Z,24.42
2022-09-06T14:56:08.770Z,24.41
2022-09-06T14:58:35.135Z,24.57
2022-09-06T15:01:07.370Z,24.75
2022-09-06T15:03:34.153Z,24.84
2022-09-06T15:06:00.513Z,24.54
2022-09-06T15:08:26.883Z,24.52
2022-09-06T15:10:54.147Z,24.50
2022-09-06T15:13:20.563Z,24.23
2022-09-06T15:15:46.994Z,24.44
2022-09-06T15:18:14.409Z,24.35
2022-09-06T15:20:40.766Z,24.43
2022-09-06T15:23:25.183Z,24.29
2022-09-06T15:25:52.140Z,24.19
2022-09-06T15:28:19.314Z,24.27
2022-09-06T15:30:49.042Z,24.29
2022-09-06T15:33:15.452Z,24.33
2022-09-06T15:35:42.731Z,24.42
2022-09-06T15:38:09.504Z,24.16
2022-09-06T15:40:35.883Z,24.08
2022-09-06T15:43:03.160Z,24.37
2022-09-06T15:45:29.753Z,24.30
2022-09-06T15:47:56.579Z,24.28
2022-09-06T15:50:40.870Z,24.21
2022-09-06T15:53:09.918Z,24.74
2022-09-06T15:55:55.119Z,25.04
2022-09-06T15:58:22.527Z,24.92
2022-09-06T16:01:03.988Z,24.94
2022-09-06T16:03:30.506Z,24.90
2022-09-06T16:08:47.426Z,25.03
2022-09-06T16:11:14.642Z,24.58
2022-09-06T16:13:41.188Z,24.74
2022-09-06T16:16:08.532Z,24.48
2022-09-06T16:18:37.103Z,24.29
2022-09-06T16:21:09.406Z,24.31
2022-09-06T16:23:36.322Z,24.20
2022-09-06T16:26:03.240Z,24.20
2022-09-06T16:28:30.181Z,24.17
2022-09-06T16:30:56.638Z,24.18
2022-09-06T16:33:23.036Z,24.17
2022-09-06T16:35:49.398Z,24.15
2022-09-06T16:38:15.770Z,24.12
2022-09-06T16:40:45.537Z,24.11
2022-09-06T16:43:12.497Z,24.06
2022-09-06T16:45:39.714Z,24.05
2022-09-06T16:48:06.974Z,24.04
2022-09-06T16:50:33.503Z,24.03
2022-09-06T16:52:59.878Z,24.01
2022-09-06T16:55:26.275Z,24.00
2022-09-06T16:57:53.031Z,23.99
2022-09-06T17:00:19.547Z,23.97
2022-09-06T17:02:47.683Z,23.94
2022-09-06T17:05:14.497Z,23.97
2022-09-06T17:07:41.413Z,23.96
2022-09-06T17:10:07.906Z,23.92
2022-09-06T17:12:34.265Z,23.91
2022-09-06T17:15:00.635Z,23.92
2022-09-06T17:17:27.805Z,23.89
2022-09-06T17:19:54.171Z,23.88
2022-09-06T17:22:21.533Z,23.89
2022-09-06T17:24:47.891Z,23.89
2022-09-06T17:27:14.451Z,23.89
2022-09-06T17:29:40.917Z,23.86
2022-09-06T17:32:10.214Z,23.87
2022-09-06T17:34:37.390Z,23.85
2022-09-06T17:37:03.937Z,23.83
2022-09-06T17:39:30.870Z,23.82
2022-09-06T17:41:58.126Z,23.78
2022-09-06T17:44:27.425Z,23.77
2022-09-06T17:47:12.069Z,23.79
2022-09-06T17:49:39.618Z,23.77
2022-09-06T17:52:05.979Z,23.79
2022-09-06T17:54:32.426Z,23.76
2022-09-06T17:56:58.799Z,23.76
2022-09-06T17:59:25.230Z,23.73
2022-09-06T18:01:52.363Z,23.75
2022-09-06T18:04:19.417Z,23.78
2022-09-06T18:06:46.779Z,23.77
2022-09-06T18:09:15.380Z,23.78
2022-09-06T18:11:41.838Z,23.81
2022-09-06T18:14:09.127Z,23.83
2022-09-06T18:16:35.929Z,23.86
2022-09-06T18:19:04.454Z,23.87
2022-09-06T18:21:31.063Z,23.87
2022-09-06T18:23:57.661Z,23.87
2022-09-06T18:26:24.068Z,23.86
2022-09-06T18:28:50.678Z,23.85
2022-09-06T18:31:17.859Z,23.85
2022-09-06T18:33:44.984Z,23.85
2022-09-06T18:36:11.666Z,23.82
2022-09-06T18:38:38.358Z,23.81
2022-09-06T18:41:05.914Z,23.80
2022-09-06T18:43:33.446Z,23.80
2022-09-06T18:46:03.719Z,23.81
2022-09-06T18:48:31.322Z,23.79
2022-09-06T18:50:59.826Z,23.79
2022-09-06T18:53:26.363Z,23.77
2022-09-06T18:55:52.941Z,23.77
2022-09-06T18:58:19.314Z,23.77
2022-09-06T19:00:45.716Z,23.77
2022-09-06T19:03:12.109Z,23.76
2022-09-06T19:05:38.490Z,23.76
2022-09-06T19:08:05.000Z,23.74
2022-09-06T19:10:31.386Z,23.74
2022-09-06T19:12:57.743Z,23.74
2022-09-06T19:15:24.098Z,23.74
2022-09-06T19:17:50.809Z,23.73
2022-09-06T19:20:17.532Z,23.74
2022-09-06T19:22:43.886Z,23.72
2022-09-06T19:25:10.831Z,23.72
2022-09-06T19:27:37.617Z,23.71
2022-09-06T19:30:06.770Z,23.71
2022-09-06T19:32:33.295Z,23.71
2022-09-06T19:35:01.392Z,23.71
2022-09-06T19:37:27.963Z,23.70
2022-09-06T19:39:54.834Z,23.70
2022-09-06T19:42:21.260Z,23.70
2022-09-06T19:44:47.619Z,23.69
2022-09-06T19:47:14.083Z,23.68
2022-09-06T19:49:40.487Z,23.69
2022-09-06T19:52:09.684Z,23.68
2022-09-06T19:54:36.805Z,23.69
2022-09-06T19:57:03.605Z,23.67
2022-09-06T19:59:30.215Z,23.68
2022-09-06T20:01:56.691Z,23.68
2022-09-06T20:04:23.058Z,23.68
2022-09-06T20:06:49.416Z,23.67
2022-09-06T20:09:15.957Z,23.67
2022-09-06T20:11:42.518Z,23.65
2022-09-06T20:14:09.417Z,23.65
2022-09-06T20:16:39.490Z,23.65
2022-09-06T20:19:07.686Z,23.67
2022-09-06T20:21:34.055Z,23.66
2022-09-06T20:24:00.475Z,23.65
2022-09-06T20:26:27.392Z,23.65
2022-09-06T20:28:54.314Z,23.63
2022-09-06T20:31:20.746Z,23.64
2022-09-06T20:33:49.732Z,23.65
2022-09-06T20:36:16.427Z,23.64
2022-09-06T20:38:43.111Z,23.64
2022-09-06T20:41:13.387Z,23.64
2022-09-06T20:43:39.763Z,23.63
2022-09-06T20:46:06.124Z,23.63
2022-09-06T20:48:32.799Z,23.62
2022-09-06T20:50:59.699Z,23.62
2022-09-06T20:53:26.115Z,23.62
2022-09-06T20:55:59.260Z,23.63
2022-09-06T20:58:25.699Z,23.62
2022-09-06T21:00:52.269Z,23.61
2022-09-06T21:03:18.730Z,23.60
2022-09-06T21:05:45.094Z,23.59
2022-09-06T21:08:11.791Z,23.60
2022-09-06T21:10:38.412Z,23.59
2022-09-06T21:13:04.767Z,23.60
2022-09-06T21:15:34.603Z,23.58
2022-09-06T21:18:01.457Z,23.58
2022-09-06T21:20:27.829Z,23.59
2022-09-06T21:22:54.205Z,23.59
2022-09-06T21:25:20.565Z,23.59
2022-09-06T21:27:46.995Z,23.58
2022-09-06T21:30:13.359Z,23.57
2022-09-06T21:32:39.747Z,23.57
2022-09-06T21:35:06.185Z,23.58
2022-09-06T21:37:32.545Z,23.57
2022-09-06T21:39:58.983Z,23.56
2022-09-06T21:42:25.376Z,23.58
2022-09-06T21:44:51.911Z,23.58
2022-09-06T21:47:18.281Z,23.59
2022-09-06T21:49:44.639Z,23.57
2022-09-06T21:52:10.989Z,23.58
2022-09-06T21:54:37.346Z,23.58
2022-09-06T21:57:03.700Z,23.57
2022-09-06T21:59:30.067Z,23.57
2022-09-06T22:01:58.122Z,23.57
2022-09-06T22:04:24.481Z,23.57
2022-09-06T22:06:51.872Z,23.56
2022-09-06T22:09:18.259Z,23.56
2022-09-06T22:11:44.614Z,23.56
2022-09-06T22:14:14.671Z,23.55
2022-09-06T22:16:41.145Z,23.55
2022-09-06T22:19:07.622Z,23.55
2022-09-06T22:21:34.055Z,23.54
2022-09-06T22:24:01.102Z,23.53
2022-09-06T22:26:28.768Z,23.53
2022-09-06T22:28:55.654Z,23.53
2022-09-06T22:31:22.121Z,23.53
2022-09-06T22:33:48.543Z,23.53
2022-09-06T22:36:14.903Z,23.53
2022-09-06T22:38:41.267Z,23.53
2022-09-06T22:41:08.071Z,23.53
2022-09-06T22:43:34.417Z,23.52
2022-09-06T22:46:07.846Z,23.54
2022-09-06T22:48:34.336Z,23.53
2022-09-06T22:51:00.804Z,23.52
2022-09-06T22:53:27.221Z,23.52
2022-09-06T22:55:53.583Z,23.52
2022-09-06T22:58:27.627Z,23.49
2022-09-06T23:00:54.629Z,23.51
2022-09-06T23:03:21.067Z,23.51
2022-09-06T23:05:47.465Z,23.51
2022-09-06T23:08:14.037Z,23.50
2022-09-06T23:10:41.618Z,23.51
2022-09-06T23:13:08.166Z,23.49
2022-09-06T23:15:35.120Z,23.49
2022-09-06T23:18:01.473Z,23.49
2022-09-06T23:20:27.818Z,23.50
2022-09-06T23:22:54.181Z,23.50
2022-09-06T23:25:20.546Z,23.48
2022-09-06T23:27:47.467Z,23.49
2022-09-06T23:30:13.813Z,23.49
2022-09-06T23:32:40.187Z,23.49
2022-09-06T23:35:06.586Z,23.50
2022-09-06T23:37:32.941Z,23.48
2022-09-06T23:39:59.347Z,23.47
2022-09-06T23:42:25.771Z,23.48
2022-09-06T23:44:57.054Z,23.47
2022-09-06T23:47:23.624Z,23.48
2022-09-06T23:49:50.723Z,23.47
2022-09-06T23:52:17.320Z,23.46
2022-09-06T23:54:43.680Z,23.48
2022-09-06T23:57:10.056Z,23.46
2022-09-06T23:59:36.420Z,23.46
